Timeline UpdatesTrip UpdatesNews PostsPvt PostsTravel TipsAdmin PostsConv PostsFollowed PostsChat RequestsBlog PostsPNR Posts

Disclaimer
Search
 
 
Mon Jul 28, 2014 11:47:46 ISTHomeTrainsΣChainsAtlasPNRForumGalleryNewsFAQTripsMembersLoginFeedback
No Recent News for this Train
Other Trains in the News **new
Latest...
⇐ Return Journey: Train# 51674

51673/Itarsi - Satna Passenger (UnReserved)

Jan 25 2014 (11:11PM)
Change Departure Station:
Change Arrival Station:
Post a Train Travel TipPost a Train Travel Tip **new
Post a Comment/Question/Picture/VideoPost a Comment/Question/Picture/Video
Pantry/Catering
✕ NO Pantry Car
✕ NO Catering
RSA - Rake Sharing
Rake Sharing with Itarsi Katni Passenger (UnReserved)/51671; Ref: http://indiarailinfo.com/blog/post/801430
Rake/Coach Composition
SLR-GEN-GEN-GEN-GEN-GEN-GEN-GEN-GEN-GEN-SLR
Loco
WDM-3D/ETARSI
News    PNR    Forum    Time-Table    Availability    Fare Chart    Map    Arr/Dep History    Trips    Gallery    ΣChains    X/O    Timeline    
Travel Time: 6h 6m    24 halts    Distance: 290 km    Avg Speed: 47 km/hr
Type: Passenger
Zone: WCR/West Central
Departs @ 06:34 (Avg 2h 24m late)
Platform# 1
SMTWTFS
Kareli/KY 
Arrives @ 12:40 (Avg 2h 21m late)
Platform# 3
SMTWTFS
Satna Junction/STA 

24 halts. 31 intermediate Stations between Kareli and Satna Junction

Show ALL intermediate Stations  Show Old Time-Table

#CodeStation NameX/OArrivesAvgDepartsAvgHaltPFDay#KmSpeedElevZoneAddress
1ETItarsi Junction (7)  -04:00+1:38--1-144.658329mWCRItarsi 461111, Madhya Pradesh
2GROGurra (2)  04:11+2:0304:12+2:061m--1-134.060327mWCRItarsi, Madhya Pradesh
3SQLSontalai (2)X  04:21+2:0704:22+2:151m--1-125.041329mWCRItarsi, Madhya Pradesh
4BGTABagratawa (2)X  04:32+2:1504:34+2:172m--1-118.187338mWCRBagra Tawa, Madhya Pradesh
5GMDGuramkhedi (2)X  04:43+2:1904:44+2:201m--1-105.146337mWCRGuramkhedi, Madhya Pradesh
6SGPSohagpur (2)X  04:57+2:1704:58+2:251m--1-95.060340mWCRSohagpur, Madhya Pradesh
7SXFSobhapur (2)X  05:07+4:4405:08+4:441m--1-86.065338mWCRState Highway 22, Madhya Pradesh
8PPIPipariya (3)X  05:16+2:2305:18+2:322m11-77.381338mWCRPiparia, Madhya Pradesh
9BKHBankhedi (2)X  05:32+2:2505:33+2:281m--1-58.455351mWCRBankheri, Madhya Pradesh
10JHTJunehta (2)X  05:40+5:1505:41+5:151m--1-52.068353mWCRState Highway 22, Madhya Pradesh
11SCKRSalichauka Road (2)  05:50+2:2605:51+2:321m--1-41.976355mWCRGadarwara, Madhya Pradesh
12GARGadarwara (2)X  06:02+2:2206:03+2:241m11-28.086352mWCRNarsinghpur, Madhya Pradesh
13BNEBohani (2)X  06:12+2:4206:13+2:471m--1-15.034361mWCRNarsinghpur, Madhya Pradesh
14KFYKarapgaon (2)  06:25+5:2906:26+5:291m--1-8.371363mWCRNational Highway 26, Madhya Pradesh
15KY»Kareli (2)»X  06:33+2:3306:34+2:241m110.070361mWCRKareli, Madhya Pradesh
16NUNarsinghpur (2)  06:48+2:3706:50+2:382m1116.444365mWCRNarsimhapur, Madhya Pradesh
17GPCGhatpindrai (2)X  06:58+2:3806:59+2:411m--122.241366mWCRGhatpindra, Madhya Pradesh
18BELDBelkhera (2)  07:07+2:4107:08+2:431m--127.753367mWCRState Highway 22, Madhya Pradesh
19KKBKarak Bel (2)X  07:13+2:4507:14+2:481m--132.166375mWCRKarak Bel, Madhya Pradesh
20SRIDShridham (3)X  07:28+2:3107:30+2:322m2147.471373mWCRShridham, Madhya Pradesh
21BMRBikrampur (2)X  07:40+2:4507:41+2:351m--159.369353mWCRBikrampur Dist Narsingpur., Madhya Pradesh
22BHTNBhitoni (2)X  07:51+2:3707:52+2:391m--170.933377mWCRJabalpur, Madhya Pradesh
23BRGTBheraghat (2)X  08:16+2:2808:17+2:281m--184.049389mWCRBheraghat, Madhya Pradesh
24MMLMadan Mahal (3)XO  08:33+2:2808:35+2:252m3197.17428mWCRJabalpur, Madhya Pradesh
25JBPJabalpur Junction (4)  09:05+2:0909:10+2:045m31100.640416mWCRJabalpur, Madhya Pradesh
26ADTLAdhartal (2)X  09:22+2:1609:24+2:152m--1108.659393mWCRJabalpur, Madhya Pradesh
27DOEDeori (2)X  09:33+2:1309:34+2:171m--1117.470392mWCRJabalpur, Madhya Pradesh
28GSPRGosalpur (2)X  09:43+2:1909:44+2:241m--1127.974396mWCRJabalpur, Madhya Pradesh
29SHRSihora Road (2)X  09:53+2:2009:55+2:232m--1139.069388mWCRJabalpur, Madhya Pradesh
30DDCEDundi (2)X  10:08+2:2810:09+2:281m--1153.963415mWCRDundi, Madhya Pradesh
31SBDSleemanabad Road (2)X  10:18+2:4310:19+2:451m--1163.452434mWCRSleemanabad, Madhya Pradesh
32SNRRSansarpur (2)  10:27+6:2410:28+6:241m--1170.367436mWCRNational Highway 7, Madhya Pradesh
33NWRNiwar (2)  10:35+2:3110:36+2:321m--1178.127412mWCRPipraundh, Madhya Pradesh
34MDRRMadhavnagar Road (2)  10:54+6:2010:55+6:201m--1186.162398mWCRMadhavnagar, Madhya Pradesh
35KTEKatni Junction (6)  11:00+2:0911:05+2:115m21191.374387mWCRKatni, Madhya Pradesh
36JKEJukehi (3)X  11:19+2:4411:20+2:451m--1208.684402mWCRJukehi, Madhya Pradesh
37UDRAmdara (2)X  11:34+2:4611:35+2:491m--1228.282376mWCRNational Highway 34, Madhya Pradesh
38MYRMaihar (3)X  11:54+2:4911:55+2:511m--1254.295353mWCRMaihar Railway Station, Madhya Pradesh
39UHRUnchhera (2)  12:04+2:5612:05+2:581m--1268.536331mWCRUnchhera, Madhya Pradesh
40STA•Satna Junction (3)•  12:40+2:21-31289.6-322mWCRSatna, Madhya Pradesh
Scroll to Top
Scroll to Bottom